Time;durP1;ratioP1;P1;durP2;ratioP2;P2;SDS_P1;SDS_P2;PMS_P1;PMS_P2;Temp;Humidity;BMP_temperature;BMP_pressure;BME280_temperature;BME280_humidity;BME280_pressure;Samples;Min_cycle;Max_cycle;Signal;HPM_P1;HPM_P2
2022/02/13 00:00:16;;;;;;;10.90;3.90;;;;;;;;;;4993698;28;20038;-72
2022/02/13 00:02:43;;;;;;;15.60;4.22;;;;;;;;;;4980457;28;20027;-71
2022/02/13 00:05:09;;;;;;;9.88;4.10;;;;;;;;;;4986967;28;20145;-71
2022/02/13 00:07:36;;;;;;;11.13;4.13;;;;;;;;;;4991578;28;20522;-72
2022/02/13 00:10:03;;;;;;;10.65;4.28;;;;;;;;;;4984775;28;20493;-71
2022/02/13 00:12:29;;;;;;;6.22;3.80;;;;;;;;;;4990936;28;20019;-72
2022/02/13 00:14:56;;;;;;;12.30;3.90;;;;;;;;;;4986782;28;20049;-72
2022/02/13 00:17:22;;;;;;;9.13;4.40;;;;;;;;;;4988560;28;20069;-71
2022/02/13 00:19:48;;;;;;;10.38;4.28;;;;;;;;;;4984856;28;20035;-72
2022/02/13 00:22:15;;;;;;;6.18;3.90;;;;;;;;;;4990384;28;20027;-71
2022/02/13 00:24:42;;;;;;;8.70;3.53;;;;;;;;;;4989776;28;20400;-72
2022/02/13 00:27:08;;;;;;;8.38;3.70;;;;;;;;;;4981571;28;20553;-72
2022/02/13 00:29:34;;;;;;;14.05;3.90;;;;;;;;;;4988286;28;20585;-72
2022/02/13 00:32:00;;;;;;;11.13;3.72;;;;;;;;;;4985078;28;20377;-72
2022/02/13 00:34:26;;;;;;;11.73;4.70;;;;;;;;;;4985394;28;20023;-72
2022/02/13 00:36:52;;;;;;;8.38;4.07;;;;;;;;;;4992572;28;20034;-71
2022/02/13 00:39:18;;;;;;;8.02;3.97;;;;;;;;;;4985730;28;20086;-71
2022/02/13 00:41:44;;;;;;;9.40;4.20;;;;;;;;;;4988988;28;20448;-71
2022/02/13 00:44:11;;;;;;;9.43;4.20;;;;;;;;;;4987187;28;20026;-72
2022/02/13 00:46:37;;;;;;;7.00;3.47;;;;;;;;;;4998130;28;20289;-71
2022/02/13 00:49:03;;;;;;;5.13;2.92;;;;;;;;;;4988827;28;20026;-71
2022/02/13 00:51:29;;;;;;;8.73;3.88;;;;;;;;;;4993807;28;20026;-71
2022/02/13 00:53:55;;;;;;;8.65;4.30;;;;;;;;;;4990191;28;20026;-71
2022/02/13 00:56:21;;;;;;;6.18;3.65;;;;;;;;;;4984211;28;20030;-72
2022/02/13 00:58:48;;;;;;;9.18;3.20;;;;;;;;;;5005025;28;20038;-71
2022/02/13 01:01:14;;;;;;;8.13;3.97;;;;;;;;;;4988397;28;20041;-71
2022/02/13 01:03:41;;;;;;;6.40;3.60;;;;;;;;;;4981696;28;20062;-72
2022/02/13 01:06:07;;;;;;;9.98;3.40;;;;;;;;;;5001597;28;20397;-71
2022/02/13 01:08:33;;;;;;;8.05;3.88;;;;;;;;;;4980875;28;20019;-71
2022/02/13 01:11:00;;;;;;;12.75;4.80;;;;;;;;;;4992104;28;20384;-71
2022/02/13 01:13:29;;;;;;;6.70;3.42;;;;;;;;;;4988320;28;20129;-72
2022/02/13 01:15:55;;;;;;;7.57;3.33;;;;;;;;;;4997376;28;20055;-70
2022/02/13 01:18:21;;;;;;;6.43;3.70;;;;;;;;;;4983594;28;20030;-72
2022/02/13 01:20:47;;;;;;;9.68;3.78;;;;;;;;;;4993929;28;20025;-71
2022/02/13 01:23:13;;;;;;;6.35;2.70;;;;;;;;;;4987518;28;20042;-71
2022/02/13 01:25:39;;;;;;;10.38;3.88;;;;;;;;;;4982989;28;20026;-71
2022/02/13 01:28:05;;;;;;;10.70;3.50;;;;;;;;;;4983240;28;20031;-71
2022/02/13 01:30:32;;;;;;;4.75;3.00;;;;;;;;;;4980153;28;20081;-71
2022/02/13 01:32:59;;;;;;;6.75;2.90;;;;;;;;;;4984513;28;20022;-71
2022/02/13 01:35:25;;;;;;;6.63;2.80;;;;;;;;;;4998970;28;20079;-72
2022/02/13 01:37:51;;;;;;;6.28;3.00;;;;;;;;;;4984630;28;20200;-71
2022/02/13 01:40:20;;;;;;;7.28;3.03;;;;;;;;;;5004545;28;20117;-71
2022/02/13 01:42:46;;;;;;;11.77;3.65;;;;;;;;;;4987249;28;20108;-71
2022/02/13 01:45:12;;;;;;;7.13;3.33;;;;;;;;;;4981228;28;20031;-72
2022/02/13 01:47:39;;;;;;;8.10;3.45;;;;;;;;;;4984517;28;20030;-71
2022/02/13 01:50:06;;;;;;;11.00;3.00;;;;;;;;;;4982528;28;20023;-72
2022/02/13 01:52:32;;;;;;;8.43;3.53;;;;;;;;;;4988582;28;20030;-71
2022/02/13 01:54:59;;;;;;;7.00;3.08;;;;;;;;;;4980990;28;20503;-71
2022/02/13 01:57:28;;;;;;;6.07;2.53;;;;;;;;;;4989145;28;20030;-71
2022/02/13 01:59:55;;;;;;;8.95;2.45;;;;;;;;;;4982757;28;20037;-72
2022/02/13 02:02:21;;;;;;;8.45;2.90;;;;;;;;;;4990370;28;20065;-71
2022/02/13 02:04:50;;;;;;;7.78;2.70;;;;;;;;;;4986827;28;20034;-71
2022/02/13 02:07:16;;;;;;;4.80;2.30;;;;;;;;;;4984629;28;20022;-71
2022/02/13 02:09:51;;;;;;;6.28;2.75;;;;;;;;;;4990456;28;20499;-71
2022/02/13 02:12:17;;;;;;;5.35;2.40;;;;;;;;;;4983520;28;20038;-72
2022/02/13 02:14:44;;;;;;;5.95;2.78;;;;;;;;;;4985495;28;20062;-72
2022/02/13 02:17:10;;;;;;;8.15;2.40;;;;;;;;;;4984875;28;20025;-71
2022/02/13 02:19:37;;;;;;;7.28;2.53;;;;;;;;;;4991506;28;20030;-71
2022/02/13 02:22:07;;;;;;;4.22;3.08;;;;;;;;;;4993475;28;20416;-71
2022/02/13 02:24:33;;;;;;;9.30;2.83;;;;;;;;;;4988541;28;20501;-71
2022/02/13 02:27:00;;;;;;;6.28;2.42;;;;;;;;;;4985092;28;20035;-72
2022/02/13 02:29:26;;;;;;;5.90;2.28;;;;;;;;;;4995422;28;20030;-71
2022/02/13 02:31:52;;;;;;;3.50;2.35;;;;;;;;;;4991294;28;20062;-70
2022/02/13 02:34:18;;;;;;;4.70;2.10;;;;;;;;;;4983830;28;20036;-72
2022/02/13 02:36:44;;;;;;;5.30;2.20;;;;;;;;;;4984643;28;20472;-71
2022/02/13 02:39:10;;;;;;;3.90;2.13;;;;;;;;;;4984137;28;20118;-72
2022/02/13 02:41:37;;;;;;;10.23;2.40;;;;;;;;;;4984487;28;20084;-71
2022/02/13 02:44:03;;;;;;;9.88;2.88;;;;;;;;;;4978913;28;20030;-71
2022/02/13 02:46:29;;;;;;;7.65;3.30;;;;;;;;;;4986718;28;20026;-71
2022/02/13 02:48:55;;;;;;;5.13;2.13;;;;;;;;;;4983779;28;20022;-71
2022/02/13 02:51:22;;;;;;;9.05;2.80;;;;;;;;;;4986131;28;20023;-71
2022/02/13 02:53:48;;;;;;;11.02;2.60;;;;;;;;;;4984013;28;20034;-71
2022/02/13 02:56:15;;;;;;;8.30;3.05;;;;;;;;;;4984474;28;20033;-71
2022/02/13 02:58:41;;;;;;;8.23;2.70;;;;;;;;;;4979098;28;20121;-70
2022/02/13 03:01:07;;;;;;;5.65;2.38;;;;;;;;;;4982439;28;20050;-72
2022/02/13 03:03:33;;;;;;;8.82;2.63;;;;;;;;;;4984268;28;20034;-71
2022/02/13 03:06:00;;;;;;;5.18;2.22;;;;;;;;;;4984773;28;20081;-71
2022/02/13 03:08:26;;;;;;;3.40;2.30;;;;;;;;;;4981803;28;20022;-71
2022/02/13 03:10:52;;;;;;;3.45;2.08;;;;;;;;;;4977898;28;20475;-71
2022/02/13 03:13:22;;;;;;;5.70;2.33;;;;;;;;;;4993141;28;20393;-71
2022/02/13 03:15:49;;;;;;;9.43;3.08;;;;;;;;;;4988207;28;20473;-71
2022/02/13 03:18:19;;;;;;;4.57;2.65;;;;;;;;;;4983794;28;20038;-71
2022/02/13 03:20:46;;;;;;;4.80;2.35;;;;;;;;;;4991946;28;20029;-72
2022/02/13 03:23:13;;;;;;;7.53;2.75;;;;;;;;;;4986736;28;20033;-71
2022/02/13 03:25:39;;;;;;;5.00;2.35;;;;;;;;;;4982750;28;20067;-72
2022/02/13 03:28:05;;;;;;;7.07;3.72;;;;;;;;;;4996202;28;20385;-71
2022/02/13 03:30:32;;;;;;;5.68;2.40;;;;;;;;;;4984999;28;20042;-71
2022/02/13 03:32:59;;;;;;;7.28;2.85;;;;;;;;;;4984587;28;20029;-71
2022/02/13 03:35:25;;;;;;;9.05;2.50;;;;;;;;;;4984501;28;20066;-71
2022/02/13 03:37:51;;;;;;;6.25;2.60;;;;;;;;;;4983454;28;20093;-72
2022/02/13 03:40:18;;;;;;;4.05;2.10;;;;;;;;;;4986138;28;20492;-71
2022/02/13 03:42:44;;;;;;;7.15;2.65;;;;;;;;;;4987764;28;20085;-70
2022/02/13 03:45:10;;;;;;;7.93;2.53;;;;;;;;;;4985614;28;21075;-71
2022/02/13 03:47:37;;;;;;;6.70;3.15;;;;;;;;;;4978951;28;20062;-71
2022/02/13 03:50:04;;;;;;;5.30;2.28;;;;;;;;;;4979050;28;20501;-71
2022/02/13 03:52:31;;;;;;;10.07;4.63;;;;;;;;;;4998820;28;20033;-71
2022/02/13 03:54:59;;;;;;;5.25;2.95;;;;;;;;;;4988351;28;20054;-71
2022/02/13 03:57:26;;;;;;;6.85;2.22;;;;;;;;;;4983219;28;20366;-72
2022/02/13 03:59:52;;;;;;;6.95;3.20;;;;;;;;;;4990154;28;20038;-71
2022/02/13 04:02:18;;;;;;;12.88;2.50;;;;;;;;;;4984191;28;20042;-71
2022/02/13 04:04:44;;;;;;;6.93;2.42;;;;;;;;;;4985407;28;20448;-71
2022/02/13 04:07:10;;;;;;;8.90;2.38;;;;;;;;;;4987157;28;20026;-71
2022/02/13 04:09:36;;;;;;;5.47;1.67;;;;;;;;;;4981195;28;20086;-71
2022/02/13 04:12:02;;;;;;;5.22;2.42;;;;;;;;;;4984773;28;20080;-71
2022/02/13 04:14:28;;;;;;;9.00;2.88;;;;;;;;;;4980190;28;20113;-70
2022/02/13 04:16:54;;;;;;;5.75;2.20;;;;;;;;;;4976994;28;20038;-70
2022/02/13 04:19:20;;;;;;;9.57;2.63;;;;;;;;;;4980543;28;20042;-70
2022/02/13 04:21:46;;;;;;;6.25;1.95;;;;;;;;;;4983426;28;20058;-71
2022/02/13 04:24:14;;;;;;;3.75;1.85;;;;;;;;;;4978891;28;20051;-71
2022/02/13 04:26:40;;;;;;;4.47;1.65;;;;;;;;;;4977273;28;20169;-71
2022/02/13 04:29:07;;;;;;;4.28;2.25;;;;;;;;;;4986447;28;20018;-70
2022/02/13 04:31:33;;;;;;;3.47;1.90;;;;;;;;;;4980597;28;20034;-71
2022/02/13 04:33:59;;;;;;;6.55;2.00;;;;;;;;;;4980606;28;20050;-71
2022/02/13 04:36:25;;;;;;;7.85;2.00;;;;;;;;;;4987056;28;20687;-71
2022/02/13 04:38:51;;;;;;;2.95;2.25;;;;;;;;;;4986725;28;20026;-71
2022/02/13 04:41:17;;;;;;;7.82;1.90;;;;;;;;;;4989627;28;20026;-72
2022/02/13 04:43:43;;;;;;;4.43;1.92;;;;;;;;;;4988920;28;20057;-72
2022/02/13 04:46:09;;;;;;;5.18;2.13;;;;;;;;;;4988810;28;20034;-72
2022/02/13 04:48:35;;;;;;;4.47;1.83;;;;;;;;;;4983663;28;20030;-71
2022/02/13 04:51:01;;;;;;;3.28;2.08;;;;;;;;;;4985072;28;20027;-73
2022/02/13 04:53:27;;;;;;;4.10;2.60;;;;;;;;;;4987297;28;20400;-72
2022/02/13 04:55:53;;;;;;;8.27;3.92;;;;;;;;;;4982034;28;20452;-72
2022/02/13 04:58:19;;;;;;;7.70;3.20;;;;;;;;;;4990064;28;20030;-72
2022/02/13 05:00:46;;;;;;;3.03;2.03;;;;;;;;;;4987770;28;20101;-71
2022/02/13 05:03:12;;;;;;;8.20;2.13;;;;;;;;;;4981491;28;20031;-72
2022/02/13 05:05:38;;;;;;;4.55;2.28;;;;;;;;;;4980157;28;20027;-73
2022/02/13 05:08:05;;;;;;;2.78;1.70;;;;;;;;;;4989072;28;20037;-72
2022/02/13 05:10:31;;;;;;;3.10;2.28;;;;;;;;;;4990444;28;20989;-72
2022/02/13 05:12:57;;;;;;;3.50;1.80;;;;;;;;;;4992545;28;20113;-72
2022/02/13 05:15:23;;;;;;;3.40;1.60;;;;;;;;;;4991037;28;20043;-71
2022/02/13 05:17:49;;;;;;;3.05;1.55;;;;;;;;;;4993100;28;20449;-70
2022/02/13 05:20:15;;;;;;;6.18;1.83;;;;;;;;;;4986958;28;20088;-71
2022/02/13 05:22:42;;;;;;;6.10;1.75;;;;;;;;;;4988787;28;20423;-72
2022/02/13 05:25:09;;;;;;;5.13;2.35;;;;;;;;;;4988402;28;20406;-72
2022/02/13 05:27:35;;;;;;;2.95;1.85;;;;;;;;;;4985986;28;20034;-72
2022/02/13 05:30:01;;;;;;;2.97;1.75;;;;;;;;;;4989954;28;20389;-71
2022/02/13 05:32:28;;;;;;;2.67;1.63;;;;;;;;;;4988001;28;20557;-73
2022/02/13 05:34:54;;;;;;;4.18;1.70;;;;;;;;;;4986675;28;20030;-72
2022/02/13 05:37:21;;;;;;;4.07;1.63;;;;;;;;;;4986466;28;20034;-71
2022/02/13 05:39:47;;;;;;;2.28;1.70;;;;;;;;;;4982224;28;20034;-73
2022/02/13 05:42:13;;;;;;;4.43;2.00;;;;;;;;;;4989415;28;20049;-73
2022/02/13 05:44:39;;;;;;;3.95;2.13;;;;;;;;;;4991515;28;20022;-71
2022/02/13 05:47:06;;;;;;;3.00;2.40;;;;;;;;;;4992658;28;20022;-69
2022/02/13 05:49:32;;;;;;;2.75;1.80;;;;;;;;;;4993708;28;20104;-72
2022/02/13 05:51:58;;;;;;;3.83;1.70;;;;;;;;;;5003926;28;20035;-72
2022/02/13 05:54:24;;;;;;;2.38;1.85;;;;;;;;;;4984694;28;20022;-72
2022/02/13 05:56:50;;;;;;;11.25;1.98;;;;;;;;;;4977775;28;20022;-72
2022/02/13 05:59:16;;;;;;;5.10;2.05;;;;;;;;;;4979512;28;20038;-72
2022/02/13 06:01:43;;;;;;;2.20;1.90;;;;;;;;;;5003802;28;20029;-72
2022/02/13 06:04:09;;;;;;;2.63;1.98;;;;;;;;;;4986359;28;20041;-73
2022/02/13 06:06:35;;;;;;;2.63;1.58;;;;;;;;;;4983196;28;20145;-72
2022/02/13 06:09:01;;;;;;;2.00;1.60;;;;;;;;;;4981639;28;20019;-72
2022/02/13 06:11:27;;;;;;;2.08;1.80;;;;;;;;;;4986351;28;20277;-72
2022/02/13 06:13:53;;;;;;;2.88;1.60;;;;;;;;;;4984994;28;20042;-72
2022/02/13 06:16:20;;;;;;;1.67;1.58;;;;;;;;;;4987235;28;20029;-72
2022/02/13 06:18:46;;;;;;;2.22;1.77;;;;;;;;;;4994762;28;20034;-72
2022/02/13 06:21:12;;;;;;;1.55;1.45;;;;;;;;;;4981355;28;20039;-73
2022/02/13 06:23:38;;;;;;;1.40;1.30;;;;;;;;;;4986420;28;20033;-71
2022/02/13 06:26:04;;;;;;;1.48;1.38;;;;;;;;;;4988438;28;20034;-71
2022/02/13 06:28:32;;;;;;;2.22;1.60;;;;;;;;;;4984226;28;20023;-71
2022/02/13 06:30:58;;;;;;;1.30;1.20;;;;;;;;;;4988615;28;20448;-71
2022/02/13 06:33:24;;;;;;;1.45;1.35;;;;;;;;;;4978975;28;20078;-72
2022/02/13 06:35:50;;;;;;;1.85;1.70;;;;;;;;;;4985576;28;20489;-72
2022/02/13 06:38:16;;;;;;;2.28;1.52;;;;;;;;;;4983556;28;20030;-70
2022/02/13 06:40:43;;;;;;;2.17;1.50;;;;;;;;;;4981321;28;20473;-72
2022/02/13 06:43:09;;;;;;;1.63;1.52;;;;;;;;;;4980357;28;20488;-71
2022/02/13 06:45:36;;;;;;;2.10;1.67;;;;;;;;;;4983938;28;20035;-72
2022/02/13 06:48:03;;;;;;;1.70;1.60;;;;;;;;;;4991088;28;20018;-71
2022/02/13 06:50:29;;;;;;;2.33;2.00;;;;;;;;;;4987964;28;20027;-71
2022/02/13 06:52:55;;;;;;;7.10;2.13;;;;;;;;;;4985485;28;20082;-71
2022/02/13 06:55:21;;;;;;;1.90;1.75;;;;;;;;;;4990708;28;20033;-72
2022/02/13 06:57:48;;;;;;;2.92;2.15;;;;;;;;;;4983878;28;20041;-72
2022/02/13 07:00:15;;;;;;;2.67;2.28;;;;;;;;;;4991713;28;20039;-73
2022/02/13 07:02:41;;;;;;;1.75;1.63;;;;;;;;;;4985672;28;20030;-72
2022/02/13 07:05:08;;;;;;;1.20;1.20;;;;;;;;;;4974379;28;20030;-71
2022/02/13 07:07:34;;;;;;;0.90;0.90;;;;;;;;;;4983609;28;20023;-73
2022/02/13 07:10:00;;;;;;;1.17;1.13;;;;;;;;;;4982506;28;20041;-72
2022/02/13 07:12:26;;;;;;;1.15;1.05;;;;;;;;;;4987451;28;20806;-72
2022/02/13 07:14:52;;;;;;;1.65;0.90;;;;;;;;;;4988036;28;20046;-72
2022/02/13 07:17:18;;;;;;;1.05;1.05;;;;;;;;;;4987284;28;20073;-71
2022/02/13 07:19:45;;;;;;;0.77;0.77;;;;;;;;;;4982956;28;20034;-72
2022/02/13 07:22:11;;;;;;;0.82;0.82;;;;;;;;;;4989512;28;20089;-71
2022/02/13 07:24:37;;;;;;;2.83;0.90;;;;;;;;;;4983294;28;20032;-72
2022/02/13 07:27:04;;;;;;;0.85;0.85;;;;;;;;;;4988993;28;20081;-70
2022/02/13 07:29:31;;;;;;;0.70;0.70;;;;;;;;;;5000092;28;20031;-70
2022/02/13 07:31:57;;;;;;;0.68;0.68;;;;;;;;;;4987634;28;20031;-71
2022/02/13 07:34:23;;;;;;;0.80;0.80;;;;;;;;;;5005961;28;20023;-71
2022/02/13 07:36:54;;;;;;;1.98;1.02;;;;;;;;;;4983660;28;20026;-72
2022/02/13 07:39:20;;;;;;;0.70;0.70;;;;;;;;;;4984490;28;20034;-71
2022/02/13 07:41:46;;;;;;;0.80;0.80;;;;;;;;;;4990411;28;20045;-72
2022/02/13 07:44:12;;;;;;;0.95;0.95;;;;;;;;;;4984854;28;20056;-72
2022/02/13 07:46:38;;;;;;;0.90;0.90;;;;;;;;;;4979403;28;21078;-72
2022/02/13 07:49:05;;;;;;;0.70;0.70;;;;;;;;;;4984462;28;20027;-70
2022/02/13 07:51:32;;;;;;;0.90;0.77;;;;;;;;;;4988425;28;20026;-71
2022/02/13 07:53:58;;;;;;;0.80;0.80;;;;;;;;;;4986522;28;20027;-70
2022/02/13 07:56:25;;;;;;;1.42;1.27;;;;;;;;;;4985737;28;20084;-70
2022/02/13 07:58:52;;;;;;;1.38;1.02;;;;;;;;;;4979837;28;20479;-71
2022/02/13 08:01:22;;;;;;;0.90;0.90;;;;;;;;;;4988761;28;20519;-72
2022/02/13 08:03:48;;;;;;;1.58;0.93;;;;;;;;;;4987026;28;20322;-71
2022/02/13 08:06:18;;;;;;;1.38;1.00;;;;;;;;;;4980675;28;20045;-71
2022/02/13 08:08:46;;;;;;;0.70;0.70;;;;;;;;;;4985209;28;20057;-72
2022/02/13 08:11:13;;;;;;;3.83;0.88;;;;;;;;;;5004295;28;20030;-71
2022/02/13 08:13:39;;;;;;;0.70;0.70;;;;;;;;;;4982597;28;20057;-70
2022/02/13 08:16:05;;;;;;;0.90;0.88;;;;;;;;;;4979255;28;20049;-71
2022/02/13 08:18:31;;;;;;;0.80;0.80;;;;;;;;;;4991440;28;20473;-70
2022/02/13 08:20:58;;;;;;;1.20;1.10;;;;;;;;;;4996879;28;20041;-72
2022/02/13 08:23:24;;;;;;;0.90;0.90;;;;;;;;;;4998945;28;20060;-71
2022/02/13 08:25:51;;;;;;;0.98;0.85;;;;;;;;;;4985720;28;20030;-70
2022/02/13 08:28:17;;;;;;;0.80;0.80;;;;;;;;;;4991491;28;20046;-71
2022/02/13 08:30:44;;;;;;;0.80;0.80;;;;;;;;;;4988171;28;20349;-71
2022/02/13 08:33:10;;;;;;;0.98;0.90;;;;;;;;;;4982984;28;20049;-71
2022/02/13 08:35:37;;;;;;;1.52;1.08;;;;;;;;;;4992571;28;20093;-71
2022/02/13 08:38:06;;;;;;;0.75;0.75;;;;;;;;;;4989343;28;20114;-71
2022/02/13 08:40:33;;;;;;;0.80;0.80;;;;;;;;;;4989226;28;20027;-71
2022/02/13 08:42:59;;;;;;;1.08;1.00;;;;;;;;;;4986010;28;20058;-71
2022/02/13 08:45:29;;;;;;;1.23;1.13;;;;;;;;;;4978886;28;20034;-71
2022/02/13 08:47:56;;;;;;;1.33;1.20;;;;;;;;;;4991151;28;20054;-70
2022/02/13 08:50:22;;;;;;;1.10;1.10;;;;;;;;;;4991664;28;20137;-72
2022/02/13 08:52:48;;;;;;;1.23;1.20;;;;;;;;;;4989853;28;20440;-72
2022/02/13 08:55:14;;;;;;;1.65;1.23;;;;;;;;;;4983525;28;20033;-71
2022/02/13 08:57:45;;;;;;;0.82;0.82;;;;;;;;;;4982640;28;20027;-72
2022/02/13 09:00:11;;;;;;;0.85;0.85;;;;;;;;;;4994922;28;20508;-71
2022/02/13 09:02:38;;;;;;;0.68;0.68;;;;;;;;;;4993178;28;20081;-73
2022/02/13 09:05:07;;;;;;;1.00;1.00;;;;;;;;;;4992248;28;20081;-71
2022/02/13 09:07:35;;;;;;;3.08;1.50;;;;;;;;;;4987791;28;20037;-72
2022/02/13 09:10:01;;;;;;;1.00;1.00;;;;;;;;;;4993590;28;20026;-71
2022/02/13 09:12:29;;;;;;;1.45;1.35;;;;;;;;;;4992270;28;20412;-71
2022/02/13 09:14:55;;;;;;;3.42;2.10;;;;;;;;;;4991297;28;20049;-70
2022/02/13 09:17:21;;;;;;;2.25;1.80;;;;;;;;;;4988508;28;20129;-71
2022/02/13 09:19:47;;;;;;;1.40;1.30;;;;;;;;;;4987386;28;20034;-72
2022/02/13 09:22:13;;;;;;;1.60;1.50;;;;;;;;;;5013442;28;20061;-70
2022/02/13 09:24:41;;;;;;;1.58;1.48;;;;;;;;;;4996057;28;20033;-71
2022/02/13 09:27:07;;;;;;;3.20;1.60;;;;;;;;;;4987149;28;20025;-71
2022/02/13 09:29:33;;;;;;;2.35;1.35;;;;;;;;;;4989709;28;20033;-71
2022/02/13 09:31:59;;;;;;;1.13;1.05;;;;;;;;;;4984976;28;20022;-71
2022/02/13 09:34:28;;;;;;;1.20;1.20;;;;;;;;;;4990053;28;20373;-71
2022/02/13 09:36:55;;;;;;;1.40;1.30;;;;;;;;;;4981272;28;20110;-72
2022/02/13 09:39:21;;;;;;;2.15;1.38;;;;;;;;;;4988949;28;20032;-72
2022/02/13 09:41:48;;;;;;;1.55;1.20;;;;;;;;;;4986901;28;20060;-71
2022/02/13 09:44:14;;;;;;;1.02;1.02;;;;;;;;;;4988039;28;20038;-71
2022/02/13 09:46:41;;;;;;;1.30;1.20;;;;;;;;;;4982437;28;20566;-72
2022/02/13 09:49:07;;;;;;;1.55;1.23;;;;;;;;;;4986103;28;20105;-71
2022/02/13 09:51:34;;;;;;;2.00;1.20;;;;;;;;;;4991805;28;20029;-69
2022/02/13 09:54:01;;;;;;;1.13;1.13;;;;;;;;;;4984860;28;20019;-71
2022/02/13 09:56:27;;;;;;;1.33;1.23;;;;;;;;;;4981196;28;20034;-70
2022/02/13 09:58:54;;;;;;;1.35;1.25;;;;;;;;;;4997524;28;20073;-70
2022/02/13 10:01:20;;;;;;;1.33;1.23;;;;;;;;;;4984801;28;20496;-70
2022/02/13 10:03:49;;;;;;;1.60;1.48;;;;;;;;;;4983764;28;20030;-72
2022/02/13 10:06:16;;;;;;;1.27;1.20;;;;;;;;;;4981880;28;20400;-72
2022/02/13 10:08:49;;;;;;;1.33;1.23;;;;;;;;;;4982808;28;20033;-71
2022/02/13 10:11:25;;;;;;;1.40;1.30;;;;;;;;;;4981992;28;20062;-72
2022/02/13 10:13:58;;;;;;;1.92;1.40;;;;;;;;;;4985121;28;20157;-71
2022/02/13 10:16:30;;;;;;;1.27;1.17;;;;;;;;;;4982310;28;20049;-72
2022/02/13 10:19:08;;;;;;;2.05;1.52;;;;;;;;;;4985078;28;20023;-72
2022/02/13 10:21:40;;;;;;;3.08;1.40;;;;;;;;;;4987269;28;20038;-73
2022/02/13 10:24:23;;;;;;;2.10;1.77;;;;;;;;;;4985406;28;20065;-71
2022/02/13 10:26:49;;;;;;;1.75;1.20;;;;;;;;;;4984025;28;20574;-73
2022/02/13 10:29:15;;;;;;;1.65;1.48;;;;;;;;;;4982675;28;20057;-72
2022/02/13 10:31:43;;;;;;;3.05;1.52;;;;;;;;;;5000942;28;20393;-71
2022/02/13 10:34:12;;;;;;;2.10;1.35;;;;;;;;;;4983341;28;20559;-72
2022/02/13 10:36:39;;;;;;;2.65;2.33;;;;;;;;;;4987667;28;20098;-71
2022/02/13 10:39:27;;;;;;;1.30;1.20;;;;;;;;;;4987182;28;20040;-71
2022/02/13 10:41:54;;;;;;;2.00;1.48;;;;;;;;;;4985849;28;20030;-72
2022/02/13 10:44:28;;;;;;;2.25;1.67;;;;;;;;;;4983546;28;20118;-72
2022/02/13 10:46:55;;;;;;;5.90;3.30;;;;;;;;;;4988802;28;20034;-72
2022/02/13 10:49:25;;;;;;;3.72;2.30;;;;;;;;;;4998748;28;20037;-72
2022/02/13 10:51:54;;;;;;;4.97;3.22;;;;;;;;;;4986177;28;20476;-71
2022/02/13 10:54:20;;;;;;;4.68;4.18;;;;;;;;;;4982348;28;20054;-72
2022/02/13 10:56:46;;;;;;;2.65;2.28;;;;;;;;;;4982137;28;20070;-72
2022/02/13 10:59:13;;;;;;;3.83;2.58;;;;;;;;;;4982078;28;20034;-72
2022/02/13 11:01:40;;;;;;;2.50;2.30;;;;;;;;;;4991630;28;20038;-72
2022/02/13 11:04:07;;;;;;;5.40;3.88;;;;;;;;;;4979588;28;20128;-72
2022/02/13 11:06:34;;;;;;;4.53;3.70;;;;;;;;;;4984546;28;20031;-71
2022/02/13 11:09:03;;;;;;;2.78;2.50;;;;;;;;;;4989077;28;20373;-72
2022/02/13 11:11:30;;;;;;;5.50;2.65;;;;;;;;;;4983263;28;20493;-72
2022/02/13 11:13:56;;;;;;;3.10;2.80;;;;;;;;;;4983593;28;20065;-71
2022/02/13 11:16:33;;;;;;;5.00;3.03;;;;;;;;;;4988779;28;20132;-72
2022/02/13 11:19:05;;;;;;;6.25;4.40;;;;;;;;;;4980875;28;20034;-72
2022/02/13 11:21:32;;;;;;;10.75;6.03;;;;;;;;;;4988446;28;20026;-72
2022/02/13 11:23:58;;;;;;;9.85;6.40;;;;;;;;;;4980564;28;20658;-71
2022/02/13 11:26:38;;;;;;;10.25;5.78;;;;;;;;;;4985130;28;20026;-71
2022/02/13 11:29:04;;;;;;;8.35;5.22;;;;;;;;;;4985245;28;20042;-71
2022/02/13 11:31:39;;;;;;;7.57;4.70;;;;;;;;;;4989953;28;20026;-71
2022/02/13 11:34:08;;;;;;;6.38;4.43;;;;;;;;;;4981009;28;20038;-72
2022/02/13 11:36:50;;;;;;;4.75;3.53;;;;;;;;;;4983541;28;20026;-71
2022/02/13 11:39:36;;;;;;;3.63;2.72;;;;;;;;;;4984338;28;20511;-72
2022/02/13 11:42:06;;;;;;;3.63;2.83;;;;;;;;;;4983703;28;20116;-72
2022/02/13 11:44:39;;;;;;;5.20;2.78;;;;;;;;;;4981957;28;20034;-72
2022/02/13 11:47:06;;;;;;;2.40;2.20;;;;;;;;;;4982027;28;20026;-72
2022/02/13 11:49:33;;;;;;;2.60;2.40;;;;;;;;;;4981392;28;20100;-72
2022/02/13 11:52:02;;;;;;;2.60;2.40;;;;;;;;;;4997707;28;20026;-73
2022/02/13 11:54:40;;;;;;;2.55;1.90;;;;;;;;;;4981975;28;20118;-73
2022/02/13 11:57:16;;;;;;;2.20;1.70;;;;;;;;;;4983095;28;20409;-72
2022/02/13 11:59:57;;;;;;;2.92;2.40;;;;;;;;;;4983778;28;20480;-72
2022/02/13 12:02:37;;;;;;;4.07;3.13;;;;;;;;;;4982749;28;20038;-72
2022/02/13 12:05:12;;;;;;;2.80;2.08;;;;;;;;;;4983014;28;20031;-72
2022/02/13 12:07:38;;;;;;;2.85;2.20;;;;;;;;;;4987659;28;20409;-73
2022/02/13 12:10:10;;;;;;;2.53;2.17;;;;;;;;;;4983763;28;20034;-72
2022/02/13 12:12:36;;;;;;;2.28;2.00;;;;;;;;;;4981370;28;20027;-71
2022/02/13 12:15:02;;;;;;;2.90;2.13;;;;;;;;;;4985019;28;20042;-71
2022/02/13 12:17:29;;;;;;;4.88;2.55;;;;;;;;;;4983112;28;20042;-72
2022/02/13 12:20:04;;;;;;;2.97;2.00;;;;;;;;;;4986916;28;21095;-72
2022/02/13 12:22:30;;;;;;;3.30;2.42;;;;;;;;;;4984423;28;20038;-72
2022/02/13 12:25:00;;;;;;;2.63;2.40;;;;;;;;;;4986088;28;20030;-72
2022/02/13 12:27:27;;;;;;;2.95;2.60;;;;;;;;;;4982993;28;20504;-72
2022/02/13 12:29:56;;;;;;;2.55;2.05;;;;;;;;;;4987880;28;20031;-73
2022/02/13 12:32:26;;;;;;;2.40;2.20;;;;;;;;;;4981210;28;20035;-72
2022/02/13 12:34:53;;;;;;;3.40;2.50;;;;;;;;;;4981648;28;20026;-72
2022/02/13 12:37:19;;;;;;;2.88;2.33;;;;;;;;;;4983789;28;20038;-72
2022/02/13 12:39:49;;;;;;;2.63;2.20;;;;;;;;;;4996635;28;20026;-73
2022/02/13 12:42:31;;;;;;;4.13;2.55;;;;;;;;;;4987444;28;20030;-71
2022/02/13 12:45:02;;;;;;;2.80;2.20;;;;;;;;;;4986958;28;20117;-72
2022/02/13 12:47:32;;;;;;;1.70;1.60;;;;;;;;;;4982699;28;20452;-72
2022/02/13 12:50:02;;;;;;;3.05;2.38;;;;;;;;;;4986045;28;20034;-72
2022/02/13 12:52:29;;;;;;;3.92;2.15;;;;;;;;;;4983071;28;20544;-72
2022/02/13 12:54:58;;;;;;;2.53;2.22;;;;;;;;;;4984593;28;20026;-72
2022/02/13 12:57:26;;;;;;;2.10;1.67;;;;;;;;;;5000379;28;20098;-72
2022/02/13 12:59:52;;;;;;;2.85;1.98;;;;;;;;;;4987000;28;20030;-72
2022/02/13 13:02:20;;;;;;;3.95;2.60;;;;;;;;;;4987636;28;20037;-74
2022/02/13 13:04:46;;;;;;;3.38;3.05;;;;;;;;;;4987109;28;20035;-70
2022/02/13 13:07:25;;;;;;;2.65;2.08;;;;;;;;;;4984624;28;20027;-72
2022/02/13 13:09:52;;;;;;;3.72;2.90;;;;;;;;;;4998932;28;20045;-70
2022/02/13 13:12:19;;;;;;;3.17;2.88;;;;;;;;;;4988729;28;20121;-71
2022/02/13 13:15:03;;;;;;;1.80;1.70;;;;;;;;;;4983575;28;20073;-72
2022/02/13 13:17:38;;;;;;;2.60;2.05;;;;;;;;;;4986199;28;20485;-72
2022/02/13 13:20:24;;;;;;;6.50;3.60;;;;;;;;;;4984436;28;20037;-74
2022/02/13 13:23:09;;;;;;;4.53;3.30;;;;;;;;;;5000863;28;20030;-72
2022/02/13 13:25:35;;;;;;;3.20;2.40;;;;;;;;;;4987276;28;20089;-72
2022/02/13 13:28:11;;;;;;;4.68;2.70;;;;;;;;;;4986624;28;20030;-72
2022/02/13 13:30:37;;;;;;;3.78;2.72;;;;;;;;;;4984265;28;20038;-71
2022/02/13 13:33:04;;;;;;;6.40;4.03;;;;;;;;;;4986744;28;20069;-72
2022/02/13 13:35:31;;;;;;;5.85;4.00;;;;;;;;;;4999655;28;20041;-71
2022/02/13 13:37:57;;;;;;;5.82;4.18;;;;;;;;;;4999505;28;20169;-71
2022/02/13 13:40:29;;;;;;;16.08;7.55;;;;;;;;;;4987854;28;20094;-72
2022/02/13 13:42:56;;;;;;;5.35;3.83;;;;;;;;;;4986695;28;20034;-71
2022/02/13 13:45:31;;;;;;;4.95;3.20;;;;;;;;;;4983222;28;20029;-71
2022/02/13 13:47:57;;;;;;;3.08;2.60;;;;;;;;;;4984021;28;20053;-71
2022/02/13 13:50:24;;;;;;;6.80;4.90;;;;;;;;;;5001033;28;20061;-71
2022/02/13 13:52:51;;;;;;;5.63;3.67;;;;;;;;;;4985723;28;20749;-71
2022/02/13 13:55:18;;;;;;;2.75;2.10;;;;;;;;;;4983220;28;20037;-71
2022/02/13 13:57:44;;;;;;;2.58;2.33;;;;;;;;;;4999131;28;20846;-72
2022/02/13 14:00:11;;;;;;;3.08;2.40;;;;;;;;;;4985100;28;20049;-71
2022/02/13 14:02:46;;;;;;;4.28;2.58;;;;;;;;;;4987790;28;20053;-70
2022/02/13 14:05:13;;;;;;;4.03;2.70;;;;;;;;;;4982683;28;20065;-71
2022/02/13 14:07:39;;;;;;;5.20;4.20;;;;;;;;;;4983939;28;20058;-71
2022/02/13 14:10:05;;;;;;;3.15;2.63;;;;;;;;;;4984200;28;20049;-70
2022/02/13 14:12:31;;;;;;;3.90;2.30;;;;;;;;;;5000562;28;20405;-70
2022/02/13 14:14:57;;;;;;;3.92;3.30;;;;;;;;;;4982938;28;20069;-71
2022/02/13 14:17:24;;;;;;;3.22;2.55;;;;;;;;;;4983964;28;20118;-70
2022/02/13 14:19:52;;;;;;;3.33;2.60;;;;;;;;;;4984616;28;20463;-72
2022/02/13 14:22:19;;;;;;;2.83;2.13;;;;;;;;;;4984442;28;20390;-71
2022/02/13 14:24:45;;;;;;;4.80;2.80;;;;;;;;;;4984688;28;20045;-72
2022/02/13 14:27:11;;;;;;;3.47;2.45;;;;;;;;;;4985219;28;20026;-72
2022/02/13 14:29:37;;;;;;;15.70;6.18;;;;;;;;;;4983688;28;20033;-71
2022/02/13 14:32:04;;;;;;;13.93;6.30;;;;;;;;;;4989165;28;20034;-71
2022/02/13 14:34:30;;;;;;;5.05;3.55;;;;;;;;;;4982386;28;20390;-71
2022/02/13 14:36:56;;;;;;;2.90;2.58;;;;;;;;;;4982855;28;20124;-71
2022/02/13 14:39:22;;;;;;;4.15;2.92;;;;;;;;;;4981986;28;20042;-71
2022/02/13 14:41:49;;;;;;;3.45;2.90;;;;;;;;;;5003397;28;20117;-71
2022/02/13 14:44:15;;;;;;;6.95;4.00;;;;;;;;;;4986384;28;20072;-71